Time;durP1;ratioP1;P1;durP2;ratioP2;P2;SDS_P1;SDS_P2;PMS_P1;PMS_P2;Temp;Humidity;BMP_temperature;BMP_pressure;BME280_temperature;BME280_humidity;BME280_pressure;Samples;Min_cycle;Max_cycle;Signal;HPM_P1;HPM_P2
2021/05/03 00:00:11;;;;;;;4.63;4.22;;;10.60;88.00;10.70;100108.00;;;;342290;28;87775;-89
2021/05/03 00:00:22;;;;;;;5.25;4.35;;;10.60;88.10;10.60;100109.00;;;;344219;28;90496;-88
2021/05/03 00:00:33;;;;;;;5.57;4.45;;;10.60;88.30;10.60;100109.00;;;;345279;28;86894;-89
2021/05/03 00:00:46;;;;;;;6.70;4.47;;;10.60;88.20;10.60;100112.00;;;;343857;28;90317;-88
2021/05/03 00:00:57;;;;;;;6.68;4.78;;;10.60;88.10;10.50;100111.00;;;;348147;27;87166;-88
2021/05/03 00:01:08;;;;;;;5.20;4.68;;;10.50;88.20;10.60;100109.00;;;;344134;28;91421;-89
2021/05/03 00:01:20;;;;;;;5.63;5.05;;;10.50;87.90;10.60;100112.00;;;;342648;28;87754;-89
2021/05/03 00:01:31;;;;;;;5.15;4.65;;;10.50;88.00;10.60;100114.00;;;;344139;28;90677;-88
2021/05/03 00:01:42;;;;;;;5.13;4.63;;;10.50;88.10;10.60;100107.00;;;;342659;28;88485;-89
2021/05/03 00:01:54;;;;;;;4.68;4.28;;;10.50;88.00;10.70;100117.00;;;;345415;28;92116;-89
2021/05/03 00:02:05;;;;;;;5.03;4.53;;;10.50;87.80;10.80;100107.00;;;;345344;28;87581;-88
2021/05/03 00:02:17;;;;;;;4.90;4.40;;;10.50;87.80;10.70;100117.00;;;;343912;28;91379;-89
2021/05/03 00:02:28;;;;;;;5.15;4.65;;;10.50;87.90;10.60;100115.00;;;;344648;28;87538;-88
2021/05/03 00:02:40;;;;;;;5.40;4.57;;;10.50;88.00;10.50;100113.00;;;;343808;28;90839;-88
2021/05/03 00:02:51;;;;;;;5.65;4.72;;;10.50;88.20;10.50;100117.00;;;;343855;28;88389;-88
2021/05/03 00:03:03;;;;;;;5.00;4.43;;;10.50;88.40;10.50;100110.00;;;;342739;28;92104;-88
2021/05/03 00:03:14;;;;;;;4.60;4.20;;;10.50;88.40;10.50;100107.00;;;;345239;28;88587;-89
2021/05/03 00:03:25;;;;;;;4.57;4.15;;;10.50;88.40;10.60;100110.00;;;;342529;28;91493;-88
2021/05/03 00:03:37;;;;;;;5.03;4.63;;;10.50;88.30;10.70;100099.00;;;;342627;28;86966;-88
2021/05/03 00:03:48;;;;;;;5.15;4.75;;;10.50;88.80;10.70;100110.00;;;;344085;28;90951;-89
2021/05/03 00:04:00;;;;;;;5.30;4.90;;;10.50;88.20;10.70;100105.00;;;;346422;28;87519;-88
2021/05/03 00:04:11;;;;;;;5.03;4.60;;;10.50;88.40;10.80;100111.00;;;;345416;28;92016;-89
2021/05/03 00:04:22;;;;;;;5.18;4.50;;;10.50;88.20;10.80;100114.00;;;;342421;28;87292;-89
2021/05/03 00:04:38;;;;;;;5.00;4.30;;;10.60;88.20;10.60;100109.00;;;;344118;28;90950;-88
2021/05/03 00:04:49;;;;;;;5.30;4.35;;;10.50;88.50;10.50;100107.00;;;;343921;28;88554;-89
2021/05/03 00:05:02;;;;;;;4.85;4.35;;;10.50;88.70;10.50;100105.00;;;;345436;28;92005;-88
2021/05/03 00:05:27;;;;;;;5.13;4.60;;;10.50;89.10;10.60;100108.00;;;;343843;28;87308;-89
2021/05/03 00:05:45;;;;;;;4.90;4.40;;;10.50;88.80;10.70;100109.00;;;;345412;28;91368;-88
2021/05/03 00:05:56;;;;;;;5.35;4.85;;;10.50;88.40;10.70;100107.00;;;;344920;28;88424;-89
2021/05/03 00:06:08;;;;;;;5.63;4.95;;;10.50;88.50;10.70;100105.00;;;;345325;28;91868;-88
2021/05/03 00:06:19;;;;;;;5.45;4.50;;;10.50;88.40;10.60;100107.00;;;;342594;28;88761;-88
2021/05/03 00:06:31;;;;;;;5.13;4.38;;;10.50;88.50;10.70;100104.00;;;;344087;28;91702;-89
2021/05/03 00:06:42;;;;;;;5.30;4.20;;;10.50;88.30;10.80;100104.00;;;;343944;28;87677;-88
2021/05/03 00:06:54;;;;;;;4.60;4.13;;;10.50;88.20;10.70;100103.00;;;;344086;28;91600;-89
2021/05/03 00:07:05;;;;;;;4.88;4.38;;;10.50;88.20;10.70;100105.00;;;;344033;28;88272;-88
2021/05/03 00:07:18;;;;;;;4.65;4.25;;;10.50;88.20;10.90;100103.00;;;;343961;28;90805;-88
2021/05/03 00:07:29;;;;;;;4.53;4.13;;;10.50;88.20;11.00;100092.00;;;;343981;28;88654;-88
2021/05/03 00:07:40;;;;;;;4.25;3.85;;;10.50;88.50;11.00;100103.00;;;;342787;28;91207;-89
2021/05/03 00:07:52;;;;;;;4.60;4.15;;;10.60;88.60;11.00;100099.00;;;;342585;28;88845;-89
2021/05/03 00:08:04;;;;;;;4.93;4.25;;;10.60;88.50;10.70;100101.00;;;;342724;28;90645;-88
2021/05/03 00:08:15;;;;;;;5.13;4.28;;;10.60;89.10;10.50;100094.00;;;;342618;28;87269;-89
2021/05/03 00:08:26;;;;;;;5.38;4.10;;;10.60;88.50;10.40;100101.00;;;;345010;28;91687;-88
2021/05/03 00:08:38;;;;;;;4.82;3.88;;;10.60;88.50;10.40;100105.00;;;;344414;28;87164;-88
2021/05/03 00:08:49;;;;;;;5.45;4.15;;;10.60;88.70;10.70;100096.00;;;;342299;28;90645;-89
2021/05/03 00:09:00;;;;;;;5.40;4.10;;;10.60;88.70;10.80;100095.00;;;;342600;28;88176;-89
2021/05/03 00:09:12;;;;;;;4.47;3.92;;;10.60;88.50;10.80;100102.00;;;;342817;28;91704;-88
2021/05/03 00:09:23;;;;;;;4.38;3.95;;;10.60;88.50;10.80;100103.00;;;;341099;28;88971;-89
2021/05/03 00:09:35;;;;;;;4.40;4.00;;;10.60;88.30;10.90;100109.00;;;;346703;28;90459;-88
2021/05/03 00:09:46;;;;;;;5.13;4.60;;;10.60;88.20;10.70;100101.00;;;;344030;28;87603;-88
2021/05/03 00:09:57;;;;;;;5.13;4.63;;;10.60;88.40;10.70;100116.00;;;;341403;28;90720;-89
2021/05/03 00:10:09;;;;;;;5.35;4.80;;;10.60;88.70;10.60;100103.00;;;;343902;28;88622;-89
2021/05/03 00:10:21;;;;;;;5.47;4.45;;;10.50;88.70;10.50;100107.00;;;;342514;28;90604;-89
2021/05/03 00:10:32;;;;;;;5.45;4.45;;;10.50;88.50;10.60;100105.00;;;;342612;28;88111;-89
2021/05/03 00:10:44;;;;;;;4.97;4.25;;;10.50;88.40;10.70;100099.00;;;;342698;28;91575;-88
2021/05/03 00:10:55;;;;;;;5.95;4.57;;;10.50;88.40;10.70;100106.00;;;;343759;28;88402;-88
2021/05/03 00:11:06;;;;;;;5.60;4.40;;;10.50;88.30;10.60;100111.00;;;;342785;28;91706;-88
2021/05/03 00:11:18;;;;;;;5.03;4.57;;;10.50;88.40;10.60;100094.00;;;;343492;28;87560;-89
2021/05/03 00:11:30;;;;;;;5.03;4.53;;;10.50;88.60;10.70;100099.00;;;;344057;28;93621;-89
2021/05/03 00:11:41;;;;;;;5.25;4.75;;;10.50;88.30;10.80;100107.00;;;;342521;28;87113;-89
2021/05/03 00:11:52;;;;;;;5.18;4.68;;;10.40;88.20;10.70;100099.00;;;;342740;28;90274;-88
2021/05/03 00:12:05;;;;;;;5.32;4.82;;;10.40;88.10;10.70;100105.00;;;;341232;28;88706;-88
2021/05/03 00:12:16;;;;;;;5.15;4.65;;;10.50;88.10;10.70;100099.00;;;;342846;28;89061;-88
2021/05/03 00:12:27;;;;;;;5.65;4.60;;;10.50;88.20;10.70;100103.00;;;;342114;28;87412;-89
2021/05/03 00:12:39;;;;;;;6.75;4.72;;;10.50;88.00;10.80;100099.00;;;;342649;28;91451;-89
2021/05/03 00:12:51;;;;;;;7.53;4.65;;;10.50;87.90;10.80;100105.00;;;;342678;28;87429;-89
2021/05/03 00:13:02;;;;;;;6.72;4.80;;;10.50;88.00;10.70;100099.00;;;;345527;28;90576;-89
2021/05/03 00:13:13;;;;;;;5.35;4.57;;;10.50;87.90;10.60;100099.00;;;;341232;28;89014;-89
2021/05/03 00:13:26;;;;;;;4.68;4.28;;;10.50;88.10;10.60;100101.00;;;;344091;28;90733;-88
2021/05/03 00:13:37;;;;;;;4.68;4.28;;;10.40;88.10;10.70;100098.00;;;;343951;28;88488;-88
2021/05/03 00:13:49;;;;;;;5.22;4.53;;;10.50;88.10;10.60;100098.00;;;;345443;28;91742;-89
2021/05/03 00:14:00;;;;;;;5.05;4.50;;;10.50;88.90;10.70;100101.00;;;;345243;28;88382;-89
2021/05/03 00:14:12;;;;;;;4.93;4.43;;;10.50;88.20;10.80;100100.00;;;;344114;28;91659;-89
2021/05/03 00:14:23;;;;;;;4.70;4.30;;;10.50;88.00;10.90;100095.00;;;;344483;28;87677;-88
2021/05/03 00:14:35;;;;;;;4.30;4.00;;;10.50;88.00;11.00;100095.00;;;;344787;28;90879;-88
2021/05/03 00:14:46;;;;;;;4.32;3.97;;;10.50;88.00;11.00;100095.00;;;;343992;28;87050;-89
2021/05/03 00:14:57;;;;;;;4.95;4.45;;;10.50;87.90;11.00;100102.00;;;;341328;28;91623;-89
2021/05/03 00:15:12;;;;;;;5.15;4.63;;;10.50;87.70;10.80;100094.00;;;;345291;28;88605;-89
2021/05/03 00:15:23;;;;;;;4.88;4.40;;;10.60;87.80;10.80;100103.00;;;;341423;28;90965;-89
2021/05/03 00:15:34;;;;;;;5.15;4.65;;;10.50;87.90;10.80;100096.00;;;;343931;28;88400;-89
2021/05/03 00:15:46;;;;;;;5.18;4.68;;;10.50;87.90;10.80;100093.00;;;;341422;28;92119;-88
2021/05/03 00:15:57;;;;;;;5.15;4.65;;;10.50;87.90;10.70;100100.00;;;;345070;28;87399;-90
2021/05/03 00:16:08;;;;;;;5.05;4.55;;;10.50;88.10;10.60;100098.00;;;;346849;28;91999;-88
2021/05/03 00:16:20;;;;;;;5.10;4.60;;;10.50;88.00;10.60;100101.00;;;;343953;28;88734;-90
2021/05/03 00:16:32;;;;;;;4.95;4.50;;;10.50;88.20;10.40;100096.00;;;;344081;28;91537;-89
2021/05/03 00:16:44;;;;;;;4.85;4.45;;;10.50;88.30;10.60;100107.00;;;;343655;28;87402;-89
2021/05/03 00:16:55;;;;;;;4.65;4.25;;;10.50;88.30;10.60;100097.00;;;;345202;28;90667;-88
2021/05/03 00:17:07;;;;;;;4.95;4.53;;;10.50;88.20;10.70;100097.00;;;;341209;28;88452;-89
2021/05/03 00:17:20;;;;;;;5.35;4.85;;;10.50;88.00;10.70;100105.00;;;;345117;28;91277;-89
2021/05/03 00:17:32;;;;;;;5.13;4.60;;;10.50;88.20;10.70;100100.00;;;;343712;28;88235;-88
2021/05/03 00:17:44;;;;;;;4.88;4.38;;;10.50;88.10;10.70;100098.00;;;;342778;28;90883;-88
2021/05/03 00:17:56;;;;;;;4.40;4.00;;;10.50;88.30;10.70;100100.00;;;;343917;28;88408;-88
2021/05/03 00:18:07;;;;;;;4.65;4.22;;;10.50;88.40;10.60;100098.00;;;;343834;28;90918;-89
2021/05/03 00:18:19;;;;;;;4.63;4.18;;;10.50;88.30;10.60;100098.00;;;;342379;28;88178;-89
2021/05/03 00:18:31;;;;;;;4.80;4.40;;;10.40;88.30;10.60;100095.00;;;;342685;28;91416;-88
2021/05/03 00:18:42;;;;;;;4.72;4.32;;;10.50;88.20;10.70;100096.00;;;;341172;28;88501;-88
2021/05/03 00:18:54;;;;;;;4.80;4.40;;;10.40;88.20;10.60;100096.00;;;;342650;28;91697;-89
2021/05/03 00:19:06;;;;;;;5.05;4.55;;;10.50;88.10;10.50;100097.00;;;;342616;28;88657;-88
2021/05/03 00:19:17;;;;;;;4.57;4.18;;;10.40;88.30;10.60;100102.00;;;;342886;28;87171;-88
2021/05/03 00:19:29;;;;;;;4.35;3.95;;;10.40;88.10;10.60;100093.00;;;;345227;28;88814;-89
2021/05/03 00:19:40;;;;;;;4.35;3.85;;;10.40;88.00;10.70;100096.00;;;;344206;28;90337;-88
2021/05/03 00:19:52;;;;;;;5.45;4.13;;;10.50;88.10;10.80;100090.00;;;;343853;28;88617;-88
2021/05/03 00:20:04;;;;;;;5.30;4.05;;;10.40;88.10;10.80;100099.00;;;;343850;28;90618;-89
2021/05/03 00:20:16;;;;;;;4.45;4.03;;;10.50;88.10;10.70;100100.00;;;;343772;28;87035;-88
2021/05/03 00:20:34;;;;;;;5.07;4.57;;;10.50;88.00;10.60;100096.00;;;;344884;28;91686;-90
2021/05/03 00:20:46;;;;;;;5.32;4.82;;;10.50;87.80;10.60;100090.00;;;;343958;28;88639;-88
2021/05/03 00:20:57;;;;;;;5.10;4.60;;;10.40;87.90;10.80;100097.00;;;;345422;28;91175;-88
2021/05/03 00:21:08;;;;;;;5.40;4.90;;;10.50;88.00;10.80;100093.00;;;;343974;28;88172;-88
2021/05/03 00:21:20;;;;;;;5.05;4.55;;;10.50;88.10;10.80;100092.00;;;;344129;28;90685;-88
2021/05/03 00:21:31;;;;;;;4.95;4.47;;;10.50;88.10;10.50;100092.00;;;;343732;28;88290;-89
2021/05/03 00:21:42;;;;;;;4.93;4.43;;;10.50;88.10;10.50;100094.00;;;;343891;28;91741;-88
2021/05/03 00:21:54;;;;;;;5.28;4.78;;;10.50;88.10;10.60;100100.00;;;;342599;28;87951;-89
2021/05/03 00:22:05;;;;;;;5.00;4.60;;;10.50;88.10;10.70;100093.00;;;;344028;28;91619;-88
2021/05/03 00:22:17;;;;;;;5.10;4.70;;;10.50;87.90;10.70;100094.00;;;;340809;28;87227;-89
2021/05/03 00:22:28;;;;;;;5.20;4.78;;;10.50;87.90;10.70;100101.00;;;;342747;28;90764;-89
2021/05/03 00:22:40;;;;;;;6.95;5.10;;;10.50;87.90;10.60;100099.00;;;;342513;28;88211;-89
2021/05/03 00:22:51;;;;;;;7.03;4.88;;;10.50;88.20;10.50;100094.00;;;;342748;28;91518;-89
2021/05/03 00:23:02;;;;;;;6.88;4.70;;;10.50;88.50;10.60;100093.00;;;;342564;28;88322;-89
2021/05/03 00:23:14;;;;;;;5.95;4.38;;;10.50;88.40;10.50;100092.00;;;;344159;28;90197;-88
2021/05/03 00:23:25;;;;;;;6.03;4.45;;;10.40;88.20;10.40;100097.00;;;;341205;28;88440;-88
2021/05/03 00:23:37;;;;;;;4.38;3.95;;;10.40;88.30;10.60;100088.00;;;;343689;28;89591;-88
2021/05/03 00:23:48;;;;;;;4.40;4.00;;;10.40;88.20;10.60;100100.00;;;;343852;28;87469;-89
2021/05/03 00:24:00;;;;;;;4.85;3.97;;;10.40;88.00;10.70;100099.00;;;;344125;28;89051;-88
2021/05/03 00:24:11;;;;;;;4.90;4.03;;;10.40;88.10;10.60;100096.00;;;;343818;28;87192;-89
2021/05/03 00:24:23;;;;;;;4.43;3.83;;;10.40;88.00;10.60;100093.00;;;;345539;28;90361;-89
2021/05/03 00:24:34;;;;;;;4.35;3.95;;;10.50;88.10;10.70;100091.00;;;;344216;28;87264;-88
2021/05/03 00:24:46;;;;;;;4.50;4.10;;;10.40;87.90;10.60;100099.00;;;;342905;28;91555;-88
2021/05/03 00:24:57;;;;;;;4.80;4.35;;;10.50;88.00;10.60;100099.00;;;;342588;28;87119;-88
2021/05/03 00:25:09;;;;;;;4.97;4.47;;;10.40;88.20;10.50;100092.00;;;;344276;28;91221;-89
2021/05/03 00:25:21;;;;;;;4.60;4.20;;;10.40;88.20;10.40;100101.00;;;;342328;28;87456;-89
2021/05/03 00:25:32;;;;;;;4.47;4.07;;;10.50;88.50;10.50;100092.00;;;;344357;28;92016;-89
2021/05/03 00:25:43;;;;;;;4.47;4.13;;;10.40;88.40;10.50;100090.00;;;;344247;28;87223;-88
2021/05/03 00:25:55;;;;;;;4.97;4.50;;;10.40;88.60;10.50;100101.00;;;;343020;28;91572;-88
2021/05/03 00:26:07;;;;;;;6.05;5.20;;;10.40;88.60;10.50;100097.00;;;;341422;28;88996;-88
2021/05/03 00:26:19;;;;;;;6.50;5.50;;;10.40;88.80;10.50;100094.00;;;;343934;28;90861;-89
2021/05/03 00:26:31;;;;;;;5.88;5.15;;;10.40;88.70;10.50;100100.00;;;;342811;28;88161;-89
2021/05/03 00:26:42;;;;;;;5.63;4.78;;;10.40;88.70;10.50;100094.00;;;;340290;28;91419;-88
2021/05/03 00:26:54;;;;;;;4.95;4.43;;;10.40;89.00;10.40;100098.00;;;;344131;28;88777;-88
2021/05/03 00:27:05;;;;;;;4.60;4.20;;;10.30;89.00;10.40;100096.00;;;;344477;28;87435;-88
2021/05/03 00:27:18;;;;;;;4.40;4.00;;;10.30;89.10;10.40;100101.00;;;;343915;28;87401;-88
2021/05/03 00:27:29;;;;;;;4.53;4.03;;;10.30;88.80;10.30;100094.00;;;;345352;28;90239;-89
2021/05/03 00:27:40;;;;;;;4.80;4.30;;;10.30;88.80;10.40;100096.00;;;;344139;28;87134;-88
2021/05/03 00:27:52;;;;;;;5.70;4.95;;;10.30;88.80;10.40;100094.00;;;;344119;28;91024;-89
2021/05/03 00:28:03;;;;;;;6.30;5.25;;;10.30;88.60;10.40;100098.00;;;;343803;28;87343;-88
2021/05/03 00:28:15;;;;;;;5.80;4.75;;;10.30;88.70;10.40;100095.00;;;;343034;28;91870;-89
2021/05/03 00:28:26;;;;;;;4.63;4.18;;;10.30;89.40;10.40;100095.00;;;;344222;28;87428;-88
2021/05/03 00:28:38;;;;;;;4.53;4.07;;;10.30;88.60;10.50;100091.00;;;;344180;28;90222;-89
2021/05/03 00:28:50;;;;;;;5.18;4.40;;;10.30;88.90;10.50;100097.00;;;;345659;28;86148;-89
2021/05/03 00:29:01;;;;;;;5.35;4.75;;;10.30;88.70;10.60;100090.00;;;;344239;28;89966;-88
2021/05/03 00:29:12;;;;;;;5.18;4.68;;;10.30;88.60;10.60;100093.00;;;;344204;28;87772;-88
2021/05/03 00:29:24;;;;;;;4.88;4.47;;;10.40;88.70;10.60;100089.00;;;;341934;28;91354;-89
2021/05/03 00:29:35;;;;;;;4.75;4.35;;;10.40;88.70;10.60;100093.00;;;;344013;28;87994;-89
2021/05/03 00:29:46;;;;;;;5.00;4.50;;;10.30;88.60;10.70;100090.00;;;;344372;28;91688;-88
2021/05/03 00:29:58;;;;;;;5.80;4.55;;;10.40;88.60;10.80;100090.00;;;;344205;28;88565;-88
2021/05/03 00:30:10;;;;;;;5.20;4.32;;;10.40;88.80;10.70;100088.00;;;;341568;28;91793;-89
2021/05/03 00:30:22;;;;;;;4.97;4.38;;;10.40;88.90;10.60;100097.00;;;;344399;28;88618;-88
2021/05/03 00:30:34;;;;;;;4.45;4.05;;;10.40;88.90;10.60;100098.00;;;;344173;28;90550;-89
2021/05/03 00:30:45;;;;;;;4.18;3.78;;;10.40;88.80;10.60;100086.00;;;;342763;28;87997;-89
2021/05/03 00:30:57;;;;;;;4.40;3.88;;;10.40;88.70;10.70;100087.00;;;;344373;28;90519;-88
2021/05/03 00:31:09;;;;;;;5.28;4.18;;;10.40;88.90;10.60;100093.00;;;;342852;28;87126;-88
2021/05/03 00:31:21;;;;;;;5.18;4.32;;;10.40;89.20;10.60;100085.00;;;;342732;28;91645;-89
2021/05/03 00:31:32;;;;;;;4.90;4.40;;;10.40;88.90;10.60;100085.00;;;;341516;28;87745;-88
2021/05/03 00:31:44;;;;;;;4.53;4.00;;;10.40;88.80;10.60;100088.00;;;;345408;28;90573;-88
2021/05/03 00:31:55;;;;;;;4.63;4.10;;;10.40;88.70;10.60;100095.00;;;;341429;28;88344;-88
2021/05/03 00:32:06;;;;;;;4.50;4.10;;;10.40;88.90;10.60;100085.00;;;;344311;28;91666;-88
2021/05/03 00:32:18;;;;;;;4.88;4.47;;;10.40;88.90;10.50;100094.00;;;;341288;28;86852;-89
2021/05/03 00:32:30;;;;;;;4.90;4.40;;;10.40;89.00;10.50;100089.00;;;;344912;28;90148;-88
2021/05/03 00:32:42;;;;;;;5.00;4.50;;;10.40;88.90;10.60;100086.00;;;;342476;28;89120;-89
2021/05/03 00:32:53;;;;;;;4.78;4.28;;;10.40;88.80;10.60;100089.00;;;;344091;28;90056;-88
2021/05/03 00:33:05;;;;;;;4.47;4.07;;;10.40;88.70;10.60;100088.00;;;;342812;28;88636;-88
2021/05/03 00:33:17;;;;;;;4.40;4.00;;;10.40;88.70;10.60;100080.00;;;;344321;28;91055;-88
2021/05/03 00:33:28;;;;;;;4.63;4.22;;;10.40;88.60;10.60;100086.00;;;;348010;27;87270;-88
2021/05/03 00:33:40;;;;;;;4.85;4.35;;;10.40;88.70;10.70;100092.00;;;;346927;28;91966;-88
2021/05/03 00:33:52;;;;;;;4.57;4.10;;;10.40;88.70;10.70;100090.00;;;;344329;28;86765;-88
2021/05/03 00:34:03;;;;;;;4.30;3.90;;;10.40;88.70;10.60;100083.00;;;;347028;28;90975;-88
2021/05/03 00:34:15;;;;;;;4.38;3.97;;;10.40;88.70;10.60;100090.00;;;;344101;28;88859;-89
2021/05/03 00:34:26;;;;;;;4.90;4.50;;;10.40;88.90;10.50;100090.00;;;;341609;28;90558;-88
2021/05/03 00:34:37;;;;;;;4.93;4.50;;;10.40;88.90;10.50;100081.00;;;;341453;28;86841;-88
2021/05/03 00:34:49;;;;;;;4.80;4.38;;;10.40;88.90;10.60;100086.00;;;;344231;28;91304;-89
2021/05/03 00:35:00;;;;;;;4.95;4.45;;;10.40;88.80;10.60;100083.00;;;;346841;28;87943;-89
2021/05/03 00:35:12;;;;;;;5.35;4.40;;;10.40;88.70;10.70;100084.00;;;;344125;28;92434;-91
2021/05/03 00:35:26;;;;;;;5.05;4.22;;;10.40;88.70;10.80;100079.00;;;;343819;28;87109;-87
2021/05/03 00:35:38;;;;;;;4.10;3.78;;;10.40;88.70;10.80;100085.00;;;;347065;28;92270;-88
2021/05/03 00:35:49;;;;;;;4.40;4.00;;;10.40;88.90;10.90;100090.00;;;;341565;28;88595;-88
2021/05/03 00:36:00;;;;;;;4.35;3.95;;;10.50;89.10;10.90;100083.00;;;;341530;28;91971;-88
2021/05/03 00:36:12;;;;;;;4.78;4.03;;;10.50;89.70;10.90;100088.00;;;;342834;28;87428;-89
2021/05/03 00:36:23;;;;;;;4.55;3.92;;;10.50;88.90;11.00;100092.00;;;;344304;28;88695;-88
2021/05/03 00:36:34;;;;;;;5.80;4.50;;;10.50;88.90;11.00;100092.00;;;;344014;28;86260;-89
2021/05/03 00:36:46;;;;;;;5.10;4.53;;;10.50;88.80;10.90;100088.00;;;;343036;28;89053;-88
2021/05/03 00:36:57;;;;;;;4.88;4.38;;;10.50;88.50;10.80;100084.00;;;;344165;28;88132;-88
2021/05/03 00:37:08;;;;;;;4.72;4.28;;;10.60;88.50;10.80;100090.00;;;;342953;28;91900;-88
2021/05/03 00:37:20;;;;;;;5.13;4.65;;;10.50;88.90;10.80;100082.00;;;;343920;28;87292;-89
2021/05/03 00:37:32;;;;;;;4.72;4.32;;;10.50;88.30;10.80;100084.00;;;;342970;28;91771;-88
2021/05/03 00:37:43;;;;;;;4.75;4.22;;;10.50;88.20;10.80;100081.00;;;;342769;28;87519;-89
2021/05/03 00:37:54;;;;;;;4.82;4.18;;;10.50;88.20;10.80;100087.00;;;;342740;28;90637;-89
2021/05/03 00:38:06;;;;;;;5.30;4.55;;;10.50;88.30;10.80;100087.00;;;;344125;28;88836;-89
2021/05/03 00:38:17;;;;;;;5.25;4.60;;;10.50;88.30;10.80;100089.00;;;;344153;28;91566;-88
2021/05/03 00:38:30;;;;;;;5.55;4.60;;;10.50;88.20;10.80;100087.00;;;;343992;28;87057;-89
2021/05/03 00:38:42;;;;;;;5.38;4.70;;;10.50;88.20;10.90;100087.00;;;;344091;28;92512;-88
2021/05/03 00:38:53;;;;;;;5.63;5.03;;;10.50;88.50;10.80;100088.00;;;;344117;28;87075;-89
2021/05/03 00:39:05;;;;;;;5.50;5.00;;;10.50;88.60;10.70;100093.00;;;;342738;28;90353;-88
2021/05/03 00:39:16;;;;;;;5.20;4.70;;;10.50;88.60;10.70;100092.00;;;;344152;28;87933;-89
2021/05/03 00:39:27;;;;;;;4.97;4.47;;;10.50;88.50;10.80;100090.00;;;;344133;28;92228;-88
2021/05/03 00:39:39;;;;;;;4.95;4.45;;;10.50;88.40;10.70;100097.00;;;;341470;28;88406;-89
2021/05/03 00:39:50;;;;;;;5.05;4.55;;;10.50;88.50;10.70;100093.00;;;;342737;28;91485;-89
2021/05/03 00:40:02;;;;;;;5.03;4.40;;;10.50;88.90;10.60;100089.00;;;;344164;28;87602;-89
2021/05/03 00:40:13;;;;;;;5.22;4.50;;;10.50;89.10;10.60;100093.00;;;;342940;28;91845;-88
2021/05/03 00:40:25;;;;;;;5.32;4.68;;;10.50;89.00;10.50;100082.00;;;;345567;28;88642;-88
2021/05/03 00:40:36;;;;;;;5.03;4.53;;;10.40;89.10;10.50;100094.00;;;;342875;28;90781;-88
2021/05/03 00:40:48;;;;;;;4.75;4.28;;;10.40;89.20;10.50;100087.00;;;;342807;28;88290;-88
2021/05/03 00:41:00;;;;;;;4.65;4.15;;;10.40;89.20;10.50;100092.00;;;;344192;28;91634;-89
2021/05/03 00:41:11;;;;;;;5.10;4.60;;;10.40;89.10;10.50;100092.00;;;;346786;28;86866;-88
2021/05/03 00:41:23;;;;;;;5.25;4.75;;;10.40;89.10;10.50;100085.00;;;;343818;28;90434;-88
2021/05/03 00:41:34;;;;;;;5.28;4.78;;;10.40;89.00;10.50;100089.00;;;;342865;28;87090;-89
2021/05/03 00:41:46;;;;;;;4.88;4.45;;;10.30;89.10;10.50;100087.00;;;;344349;28;91370;-89
2021/05/03 00:41:57;;;;;;;4.55;4.15;;;10.40;89.40;10.60;100090.00;;;;344172;28;88440;-88
2021/05/03 00:42:08;;;;;;;4.75;4.35;;;10.30;89.10;10.60;100092.00;;;;341521;28;90705;-89
2021/05/03 00:42:20;;;;;;;4.78;4.38;;;10.30;89.10;10.60;100088.00;;;;344165;28;88471;-88
2021/05/03 00:42:31;;;;;;;4.68;4.28;;;10.30;89.00;10.60;100093.00;;;;344390;28;91008;-89
2021/05/03 00:42:44;;;;;;;4.32;3.97;;;10.30;89.20;10.50;100085.00;;;;344075;28;87101;-88
2021/05/03 00:42:55;;;;;;;4.22;3.88;;;10.40;89.30;10.60;100091.00;;;;344259;28;92315;-88
2021/05/03 00:43:07;;;;;;;4.75;4.07;;;10.30;89.10;10.60;100089.00;;;;343986;28;87334;-88
2021/05/03 00:43:20;;;;;;;5.53;4.50;;;10.30;89.00;10.60;100091.00;;;;344265;28;90434;-89
2021/05/03 00:43:32;;;;;;;5.10;4.55;;;10.30;89.00;10.70;100086.00;;;;343836;28;89004;-89
2021/05/03 00:43:43;;;;;;;5.00;4.55;;;10.40;89.10;10.60;100092.00;;;;341430;28;89475;-88
2021/05/03 00:43:54;;;;;;;5.55;5.05;;;10.40;89.10;10.60;100083.00;;;;342786;28;87441;-89
2021/05/03 00:44:06;;;;;;;5.40;4.90;;;10.40;89.20;10.60;100088.00;;;;344317;28;91465;-88
2021/05/03 00:44:17;;;;;;;4.95;4.55;;;10.30;89.00;10.60;100094.00;;;;344055;28;87122;-88
2021/05/03 00:44:29;;;;;;;4.78;4.32;;;10.40;89.20;10.60;100091.00;;;;345529;28;89778;-88
2021/05/03 00:44:40;;;;;;;4.70;4.13;;;10.30;89.10;10.70;100086.00;;;;344116;28;87042;-89
2021/05/03 00:44:52;;;;;;;4.88;4.38;;;10.30;89.00;10.70;100093.00;;;;344655;28;89397;-88
2021/05/03 00:45:07;;;;;;;5.20;4.40;;;10.40;89.10;10.80;100089.00;;;;342963;28;88145;-89
2021/05/03 00:45:19;;;;;;;4.85;4.20;;;10.40;89.10;10.80;100089.00;;;;344065;28;90515;-88
2021/05/03 00:45:31;;;;;;;4.80;4.30;;;10.40;89.00;10.80;100092.00;;;;345517;28;87848;-88
2021/05/03 00:45:43;;;;;;;5.10;4.15;;;10.40;89.00;10.70;100083.00;;;;344360;28;90290;-88
2021/05/03 00:45:54;;;;;;;4.30;3.90;;;10.40;88.90;10.60;100093.00;;;;345604;28;86087;-88
2021/05/03 00:46:07;;;;;;;4.38;3.97;;;10.40;88.90;10.70;100095.00;;;;343936;28;91401;-89
2021/05/03 00:46:20;;;;;;;4.32;3.92;;;10.40;88.90;10.70;100094.00;;;;344209;28;88033;-89
2021/05/03 00:46:31;;;;;;;4.20;3.90;;;10.40;88.90;10.90;100088.00;;;;344202;28;90069;-89
2021/05/03 00:46:43;;;;;;;4.75;4.18;;;10.40;89.00;10.90;100089.00;;;;344101;28;88436;-88
2021/05/03 00:46:56;;;;;;;5.53;4.15;;;10.40;89.20;10.90;100080.00;;;;341532;28;91640;-88
2021/05/03 00:47:08;;;;;;;4.93;4.15;;;10.40;89.80;10.90;100083.00;;;;341457;28;88395;-88
2021/05/03 00:47:20;;;;;;;4.40;4.00;;;10.50;89.20;10.90;100081.00;;;;344165;28;89053;-88
2021/05/03 00:47:32;;;;;;;4.53;4.13;;;10.40;89.20;10.80;100084.00;;;;343924;28;88674;-89
2021/05/03 00:47:43;;;;;;;4.70;4.30;;;10.40;89.10;10.80;100088.00;;;;341605;28;91399;-88
2021/05/03 00:47:55;;;;;;;5.00;4.50;;;10.40;89.00;10.80;100078.00;;;;345341;28;88603;-88
2021/05/03 00:48:07;;;;;;;5.35;4.45;;;10.40;89.10;10.70;100081.00;;;;344251;28;91903;-88
2021/05/03 00:48:19;;;;;;;5.00;4.32;;;10.40;89.10;10.60;100090.00;;;;342871;28;88320;-89
2021/05/03 00:48:30;;;;;;;4.78;4.35;;;10.40;89.30;10.50;100085.00;;;;344441;28;90040;-89
2021/05/03 00:48:42;;;;;;;5.05;4.55;;;10.40;89.50;10.60;100080.00;;;;345208;28;87609;-88
2021/05/03 00:48:53;;;;;;;5.15;4.65;;;10.40;89.40;10.60;100083.00;;;;341309;28;90860;-89
2021/05/03 00:49:06;;;;;;;4.88;4.45;;;10.40;89.40;10.60;100090.00;;;;342636;28;87576;-89
2021/05/03 00:49:17;;;;;;;4.65;4.25;;;10.40;89.30;10.70;100085.00;;;;342976;28;90665;-88
2021/05/03 00:49:28;;;;;;;4.80;4.30;;;10.40;89.10;10.80;100084.00;;;;341400;28;88353;-88
2021/05/03 00:49:41;;;;;;;5.65;4.68;;;10.40;89.20;10.70;100095.00;;;;344320;28;90987;-88
2021/05/03 00:49:52;;;;;;;5.85;4.88;;;10.40;89.10;10.60;100079.00;;;;344220;28;87208;-88
2021/05/03 00:50:08;;;;;;;5.18;4.20;;;10.40;89.20;10.60;100084.00;;;;344077;28;90379;-88
2021/05/03 00:50:21;;;;;;;4.45;3.95;;;10.40;89.30;10.60;100086.00;;;;343984;28;87521;-88
2021/05/03 00:50:32;;;;;;;4.97;4.47;;;10.40;89.20;10.50;100080.00;;;;342857;28;90796;-89
2021/05/03 00:50:44;;;;;;;5.00;4.50;;;10.40;89.50;10.50;100083.00;;;;342884;28;87311;-87
2021/05/03 00:50:55;;;;;;;4.90;4.47;;;10.40;89.90;10.40;100088.00;;;;344276;28;87976;-88
2021/05/03 00:51:07;;;;;;;4.75;4.28;;;10.40;89.70;10.40;100089.00;;;;341540;28;87340;-88
2021/05/03 00:51:18;;;;;;;4.38;3.98;;;10.30;89.50;10.50;100085.00;;;;344021;28;89551;-89
2021/05/03 00:51:29;;;;;;;4.28;3.88;;;10.30;89.40;10.50;100086.00;;;;342666;28;88598;-88
2021/05/03 00:51:41;;;;;;;4.57;4.18;;;10.30;89.40;10.60;100086.00;;;;345722;28;90626;-88
2021/05/03 00:51:53;;;;;;;5.45;4.50;;;10.30;89.30;10.50;100084.00;;;;342788;28;87964;-88
2021/05/03 00:52:05;;;;;;;5.80;4.50;;;10.30;89.50;10.50;100086.00;;;;347049;27;90464;-88
2021/05/03 00:52:16;;;;;;;5.10;4.30;;;10.30;89.60;10.40;100084.00;;;;346765;27;87422;-88